首页
METAR-TAF:

METAR-TAF

机场 :

德拉姆堡, 紐約州, 美国

纬度: 44-03N, 经度: 075-44W, 海拔: 207米

当前天气观测

该预报发布于30分钟前的19:56 UTC
风速11节,风向北转西北,有时为21节阵风
温度 9°C
湿度 46%
气压 1010 hPa
能見度: 16.1公里
少量云层高于4500英尺
散云层高于19000英尺

METAR: KGTB 021956Z AUTO 34011G21KT 10SM FEW045 SCT190 09/M02 A2983 RMK AO2 SLP107 T00911019 $

时间: 16:26 (20:26 UTC)

预报

该预报发布于3小时和26分钟前的17:00 UTC
预报有效从02日的 17点(UTC)到 03日的 23点(UTC)
风速12节,风向北转东北,有时为18节阵风
能见度10公里或以上
散云层高于4000英尺
成为
从 02日的 22点(UTC)到 02日的 23点(UTC)
风速9节,风向北转西北
能见度10公里或以上
多云层高于1500英尺
阴天层高于3000英尺
成为
从 03日的 03点(UTC)到 03日的 04点(UTC)
风速9节,风向
能見度: 8000
阴天层高于800英尺
小雨
成为
从 03日的 15点(UTC)到 03日的 17点(UTC)
风速9节,风向
能見度: 8000
阴天层高于900英尺
小毛毛雨, 轻雾
成为
从 03日的 21点(UTC)到 03日的 23点(UTC)
风速9节,风向北转东北
能見度: 9000
多云层高于1000英尺
轻雾

TAF: KGTB 021700Z 0217/0323 02012G18KT 9999 SCT040 QNH2975INS BECMG 0222/0223 34009KT 9999 BKN015 OVC030 620303 QNH2971INS BECMG 0303/0304 35009KT 8000 -RA OVC008 620089 QNH2975INS BECMG 0315/0317 01009KT 8000 -DZ BR OVC009 620099 QNH2976INS BECMG 0321/0323 03009KT 9000 BR BKN010 620109 QNH2988INS TX12/0220Z TN02/0310Z

超过4000个机场的气象观测和天气预报(METAR&TAF报告)。

可查询的气象台以黄色和红色小点在地图上表示。

将鼠标移到小点上方,可查看气象台名称。

然后点击查看天气观测和预报。

如需切换地图:点击带黑十字的绿色按钮放大地图;点击带横线的绿色按钮缩小地图;或者点击绿色箭头查看邻近地区的地图。


METAR-TAF: